sensor_id;sensor_type;location;lat;lon;timestamp;temperature;humidity
7700;DHT22;3892;47.794;19.126;2023-05-10T00:02:03;19.80;32.10
7700;DHT22;3892;47.794;19.126;2023-05-10T00:04:32;19.80;32.30
7700;DHT22;3892;47.794;19.126;2023-05-10T00:07:00;19.80;32.10
7700;DHT22;3892;47.794;19.126;2023-05-10T00:09:28;19.70;32.00
7700;DHT22;3892;47.794;19.126;2023-05-10T00:11:56;19.70;32.10
7700;DHT22;3892;47.794;19.126;2023-05-10T00:14:27;19.70;32.30
7700;DHT22;3892;47.794;19.126;2023-05-10T00:16:55;19.70;32.30
7700;DHT22;3892;47.794;19.126;2023-05-10T00:19:23;19.70;32.30
7700;DHT22;3892;47.794;19.126;2023-05-10T00:21:51;19.70;32.20
7700;DHT22;3892;47.794;19.126;2023-05-10T00:24:19;19.70;32.40
7700;DHT22;3892;47.794;19.126;2023-05-10T00:26:47;19.80;32.50
7700;DHT22;3892;47.794;19.126;2023-05-10T00:29:15;19.80;32.60
7700;DHT22;3892;47.794;19.126;2023-05-10T00:31:45;19.80;32.60
7700;DHT22;3892;47.794;19.126;2023-05-10T00:34:13;19.80;32.80
7700;DHT22;3892;47.794;19.126;2023-05-10T00:36:41;19.80;32.70
7700;DHT22;3892;47.794;19.126;2023-05-10T00:39:09;19.90;33.00
7700;DHT22;3892;47.794;19.126;2023-05-10T00:41:37;19.90;32.90
7700;DHT22;3892;47.794;19.126;2023-05-10T00:44:05;19.90;33.10
7700;DHT22;3892;47.794;19.126;2023-05-10T00:46:33;19.80;33.10
7700;DHT22;3892;47.794;19.126;2023-05-10T00:49:04;19.80;33.30
7700;DHT22;3892;47.794;19.126;2023-05-10T00:51:32;19.80;33.30
7700;DHT22;3892;47.794;19.126;2023-05-10T00:54:00;19.80;33.40
7700;DHT22;3892;47.794;19.126;2023-05-10T00:56:28;19.90;33.60
7700;DHT22;3892;47.794;19.126;2023-05-10T00:58:56;19.90;33.80
7700;DHT22;3892;47.794;19.126;2023-05-10T01:01:25;19.80;33.60
7700;DHT22;3892;47.794;19.126;2023-05-10T01:03:53;19.70;34.00
7700;DHT22;3892;47.794;19.126;2023-05-10T01:06:23;19.60;33.90
7700;DHT22;3892;47.794;19.126;2023-05-10T01:08:51;19.60;34.10
7700;DHT22;3892;47.794;19.126;2023-05-10T01:11:19;19.50;34.20
7700;DHT22;3892;47.794;19.126;2023-05-10T01:13:50;19.50;34.30
7700;DHT22;3892;47.794;19.126;2023-05-10T01:16:20;19.40;34.30
7700;DHT22;3892;47.794;19.126;2023-05-10T01:18:48;19.40;34.40
7700;DHT22;3892;47.794;19.126;2023-05-10T01:21:21;19.40;34.30
7700;DHT22;3892;47.794;19.126;2023-05-10T01:27:25;19.20;34.50
7700;DHT22;3892;47.794;19.126;2023-05-10T01:30:22;19.20;34.70
7700;DHT22;3892;47.794;19.126;2023-05-10T01:32:58;19.30;34.90
7700;DHT22;3892;47.794;19.126;2023-05-10T01:35:34;19.30;34.80
7700;DHT22;3892;47.794;19.126;2023-05-10T01:38:10;19.30;34.90
7700;DHT22;3892;47.794;19.126;2023-05-10T01:40:47;19.40;35.00
7700;DHT22;3892;47.794;19.126;2023-05-10T01:43:21;19.40;35.00
7700;DHT22;3892;47.794;19.126;2023-05-10T01:45:57;19.40;35.00
7700;DHT22;3892;47.794;19.126;2023-05-10T01:48:30;19.40;35.00
7700;DHT22;3892;47.794;19.126;2023-05-10T01:50:59;19.50;35.00
7700;DHT22;3892;47.794;19.126;2023-05-10T01:53:27;19.50;35.10
7700;DHT22;3892;47.794;19.126;2023-05-10T01:55:57;19.50;35.20
7700;DHT22;3892;47.794;19.126;2023-05-10T01:58:29;19.60;35.30
7700;DHT22;3892;47.794;19.126;2023-05-10T02:01:01;19.60;35.40
7700;DHT22;3892;47.794;19.126;2023-05-10T02:03:31;19.60;35.90
7700;DHT22;3892;47.794;19.126;2023-05-10T02:06:00;19.50;35.30
7700;DHT22;3892;47.794;19.126;2023-05-10T02:08:30;19.50;35.40
7700;DHT22;3892;47.794;19.126;2023-05-10T02:10:58;19.40;35.50
7700;DHT22;3892;47.794;19.126;2023-05-10T02:13:28;19.40;35.60
7700;DHT22;3892;47.794;19.126;2023-05-10T02:15:57;19.50;35.70
7700;DHT22;3892;47.794;19.126;2023-05-10T02:18:27;19.50;35.70
7700;DHT22;3892;47.794;19.126;2023-05-10T02:20:58;19.60;35.70
7700;DHT22;3892;47.794;19.126;2023-05-10T02:23:27;19.70;35.80
7700;DHT22;3892;47.794;19.126;2023-05-10T02:25:57;19.70;35.80
7700;DHT22;3892;47.794;19.126;2023-05-10T02:28:26;19.70;35.70
7700;DHT22;3892;47.794;19.126;2023-05-10T02:30:55;19.60;35.70
7700;DHT22;3892;47.794;19.126;2023-05-10T02:33:24;19.50;35.70
7700;DHT22;3892;47.794;19.126;2023-05-10T02:35:53;19.50;35.80
7700;DHT22;3892;47.794;19.126;2023-05-10T02:38:24;19.50;36.00
7700;DHT22;3892;47.794;19.126;2023-05-10T02:40:54;19.50;36.00
7700;DHT22;3892;47.794;19.126;2023-05-10T02:43:23;19.30;36.00
7700;DHT22;3892;47.794;19.126;2023-05-10T02:45:52;19.30;36.10
7700;DHT22;3892;47.794;19.126;2023-05-10T02:48:20;19.30;36.20
7700;DHT22;3892;47.794;19.126;2023-05-10T02:50:50;19.30;36.40
7700;DHT22;3892;47.794;19.126;2023-05-10T02:53:27;19.20;36.10
7700;DHT22;3892;47.794;19.126;2023-05-10T02:56:01;19.20;36.30
7700;DHT22;3892;47.794;19.126;2023-05-10T02:58:33;19.30;36.40
7700;DHT22;3892;47.794;19.126;2023-05-10T03:01:02;19.40;36.30
7700;DHT22;3892;47.794;19.126;2023-05-10T03:03:30;19.50;36.30
7700;DHT22;3892;47.794;19.126;2023-05-10T03:05:58;19.50;36.30
7700;DHT22;3892;47.794;19.126;2023-05-10T03:08:28;19.60;36.30
7700;DHT22;3892;47.794;19.126;2023-05-10T03:11:09;19.60;36.10
7700;DHT22;3892;47.794;19.126;2023-05-10T03:13:55;19.60;36.30
7700;DHT22;3892;47.794;19.126;2023-05-10T03:16:27;19.60;36.30
7700;DHT22;3892;47.794;19.126;2023-05-10T03:19:03;19.50;36.00
7700;DHT22;3892;47.794;19.126;2023-05-10T03:21:36;19.50;36.10
7700;DHT22;3892;47.794;19.126;2023-05-10T03:24:09;19.60;36.50
7700;DHT22;3892;47.794;19.126;2023-05-10T03:26:40;19.50;36.10
7700;DHT22;3892;47.794;19.126;2023-05-10T03:29:11;19.50;36.10
7700;DHT22;3892;47.794;19.126;2023-05-10T03:31:40;19.40;36.10
7700;DHT22;3892;47.794;19.126;2023-05-10T03:34:09;19.30;36.10
7700;DHT22;3892;47.794;19.126;2023-05-10T03:36:38;19.30;36.50
7700;DHT22;3892;47.794;19.126;2023-05-10T03:39:06;19.10;37.00
7700;DHT22;3892;47.794;19.126;2023-05-10T03:41:35;19.00;37.90
7700;DHT22;3892;47.794;19.126;2023-05-10T03:44:03;19.00;38.50
7700;DHT22;3892;47.794;19.126;2023-05-10T03:46:31;19.00;39.00
7700;DHT22;3892;47.794;19.126;2023-05-10T03:49:00;19.10;39.30
7700;DHT22;3892;47.794;19.126;2023-05-10T03:51:28;19.20;39.30
7700;DHT22;3892;47.794;19.126;2023-05-10T03:53:57;19.10;38.80
7700;DHT22;3892;47.794;19.126;2023-05-10T03:56:25;19.10;38.50
7700;DHT22;3892;47.794;19.126;2023-05-10T03:58:55;19.10;38.70
7700;DHT22;3892;47.794;19.126;2023-05-10T04:01:23;19.20;39.00
7700;DHT22;3892;47.794;19.126;2023-05-10T04:03:51;19.20;38.80
7700;DHT22;3892;47.794;19.126;2023-05-10T04:06:19;19.30;39.00
7700;DHT22;3892;47.794;19.126;2023-05-10T04:08:47;19.30;39.20
7700;DHT22;3892;47.794;19.126;2023-05-10T04:11:15;19.20;38.90
7700;DHT22;3892;47.794;19.126;2023-05-10T04:13:43;19.30;39.20
7700;DHT22;3892;47.794;19.126;2023-05-10T04:16:12;19.30;39.40
7700;DHT22;3892;47.794;19.126;2023-05-10T04:18:40;19.40;39.50
7700;DHT22;3892;47.794;19.126;2023-05-10T04:21:11;19.40;39.50
7700;DHT22;3892;47.794;19.126;2023-05-10T04:23:41;19.50;39.40
7700;DHT22;3892;47.794;19.126;2023-05-10T04:26:10;19.50;39.40
7700;DHT22;3892;47.794;19.126;2023-05-10T04:28:38;19.50;39.40
7700;DHT22;3892;47.794;19.126;2023-05-10T04:31:08;19.50;39.30
7700;DHT22;3892;47.794;19.126;2023-05-10T04:33:37;19.50;39.20
7700;DHT22;3892;47.794;19.126;2023-05-10T04:36:06;19.60;39.10
7700;DHT22;3892;47.794;19.126;2023-05-10T04:38:34;19.60;39.00
7700;DHT22;3892;47.794;19.126;2023-05-10T04:41:05;19.60;39.00
7700;DHT22;3892;47.794;19.126;2023-05-10T04:43:34;19.50;38.70
7700;DHT22;3892;47.794;19.126;2023-05-10T04:46:02;19.50;38.70
7700;DHT22;3892;47.794;19.126;2023-05-10T04:48:31;19.60;38.80
7700;DHT22;3892;47.794;19.126;2023-05-10T04:51:00;19.60;38.80
7700;DHT22;3892;47.794;19.126;2023-05-10T04:53:30;19.60;38.60
7700;DHT22;3892;47.794;19.126;2023-05-10T04:55:58;19.70;38.60
7700;DHT22;3892;47.794;19.126;2023-05-10T04:58:26;19.60;38.20
7700;DHT22;3892;47.794;19.126;2023-05-10T05:00:54;19.50;38.00
7700;DHT22;3892;47.794;19.126;2023-05-10T05:03:22;19.40;38.10
7700;DHT22;3892;47.794;19.126;2023-05-10T05:05:50;19.30;38.20
7700;DHT22;3892;47.794;19.126;2023-05-10T05:08:20;19.20;38.40
7700;DHT22;3892;47.794;19.126;2023-05-10T05:10:49;19.10;38.40
7700;DHT22;3892;47.794;19.126;2023-05-10T05:13:18;19.10;38.50
7700;DHT22;3892;47.794;19.126;2023-05-10T05:15:46;19.20;38.80
7700;DHT22;3892;47.794;19.126;2023-05-10T05:18:14;19.30;38.80
7700;DHT22;3892;47.794;19.126;2023-05-10T05:20:42;19.30;38.70
7700;DHT22;3892;47.794;19.126;2023-05-10T05:23:10;19.40;38.70
7700;DHT22;3892;47.794;19.126;2023-05-10T05:25:39;19.40;38.60
7700;DHT22;3892;47.794;19.126;2023-05-10T05:28:08;19.50;38.70
7700;DHT22;3892;47.794;19.126;2023-05-10T05:30:36;19.50;38.70
7700;DHT22;3892;47.794;19.126;2023-05-10T05:33:04;19.50;38.70
7700;DHT22;3892;47.794;19.126;2023-05-10T05:35:33;19.50;38.60
7700;DHT22;3892;47.794;19.126;2023-05-10T05:38:01;19.50;38.30
7700;DHT22;3892;47.794;19.126;2023-05-10T05:40:29;19.40;38.20
7700;DHT22;3892;47.794;19.126;2023-05-10T05:42:58;19.30;38.20
7700;DHT22;3892;47.794;19.126;2023-05-10T05:45:27;19.30;38.20
7700;DHT22;3892;47.794;19.126;2023-05-10T05:47:55;19.30;38.50
7700;DHT22;3892;47.794;19.126;2023-05-10T05:50:23;19.30;38.60
7700;DHT22;3892;47.794;19.126;2023-05-10T05:52:51;19.40;38.80
7700;DHT22;3892;47.794;19.126;2023-05-10T05:55:19;19.40;38.90
7700;DHT22;3892;47.794;19.126;2023-05-10T05:57:48;19.50;39.00
7700;DHT22;3892;47.794;19.126;2023-05-10T06:00:17;19.50;38.70
7700;DHT22;3892;47.794;19.126;2023-05-10T06:02:45;19.60;38.70
7700;DHT22;3892;47.794;19.126;2023-05-10T06:05:14;19.60;38.70
7700;DHT22;3892;47.794;19.126;2023-05-10T06:07:42;19.70;38.80
7700;DHT22;3892;47.794;19.126;2023-05-10T06:10:10;19.70;38.80
7700;DHT22;3892;47.794;19.126;2023-05-10T06:12:38;19.80;38.90
7700;DHT22;3892;47.794;19.126;2023-05-10T06:15:07;19.70;38.40
7700;DHT22;3892;47.794;19.126;2023-05-10T06:17:37;19.70;38.40
7700;DHT22;3892;47.794;19.126;2023-05-10T06:20:06;19.80;38.80
7700;DHT22;3892;47.794;19.126;2023-05-10T06:22:34;19.80;38.70
7700;DHT22;3892;47.794;19.126;2023-05-10T06:25:03;19.80;38.40
7700;DHT22;3892;47.794;19.126;2023-05-10T06:27:31;19.70;38.70
7700;DHT22;3892;47.794;19.126;2023-05-10T06:29:59;19.60;38.70
7700;DHT22;3892;47.794;19.126;2023-05-10T06:32:31;19.60;38.90
7700;DHT22;3892;47.794;19.126;2023-05-10T06:35:01;19.70;39.20
7700;DHT22;3892;47.794;19.126;2023-05-10T06:37:30;19.70;39.10
7700;DHT22;3892;47.794;19.126;2023-05-10T06:39:59;19.70;39.30
7700;DHT22;3892;47.794;19.126;2023-05-10T06:42:27;19.80;39.40
7700;DHT22;3892;47.794;19.126;2023-05-10T06:44:55;19.90;38.40
7700;DHT22;3892;47.794;19.126;2023-05-10T06:47:23;19.80;38.40
7700;DHT22;3892;47.794;19.126;2023-05-10T06:49:51;19.90;38.80
7700;DHT22;3892;47.794;19.126;2023-05-10T06:52:21;20.10;39.20
7700;DHT22;3892;47.794;19.126;2023-05-10T06:54:49;20.20;39.10
7700;DHT22;3892;47.794;19.126;2023-05-10T06:57:17;20.30;38.90
7700;DHT22;3892;47.794;19.126;2023-05-10T06:59:56;20.30;38.50
7700;DHT22;3892;47.794;19.126;2023-05-10T07:02:24;20.20;37.50
7700;DHT22;3892;47.794;19.126;2023-05-10T07:04:52;20.00;37.30
7700;DHT22;3892;47.794;19.126;2023-05-10T07:07:22;20.00;37.60
7700;DHT22;3892;47.794;19.126;2023-05-10T07:09:50;20.00;37.70
7700;DHT22;3892;47.794;19.126;2023-05-10T07:12:18;19.90;37.80
7700;DHT22;3892;47.794;19.126;2023-05-10T07:14:46;19.90;37.90
7700;DHT22;3892;47.794;19.126;2023-05-10T07:17:14;19.90;37.70
7700;DHT22;3892;47.794;19.126;2023-05-10T07:19:42;19.90;38.30
7700;DHT22;3892;47.794;19.126;2023-05-10T07:22:10;19.90;38.30
7700;DHT22;3892;47.794;19.126;2023-05-10T07:24:40;20.00;38.60
7700;DHT22;3892;47.794;19.126;2023-05-10T07:27:08;20.10;38.40
7700;DHT22;3892;47.794;19.126;2023-05-10T07:29:36;20.10;38.40
7700;DHT22;3892;47.794;19.126;2023-05-10T07:32:05;20.10;38.30
7700;DHT22;3892;47.794;19.126;2023-05-10T07:34:33;20.10;38.90
7700;DHT22;3892;47.794;19.126;2023-05-10T07:37:01;20.20;39.10
7700;DHT22;3892;47.794;19.126;2023-05-10T07:39:29;20.30;39.20
7700;DHT22;3892;47.794;19.126;2023-05-10T07:41:59;20.40;38.70
7700;DHT22;3892;47.794;19.126;2023-05-10T07:44:27;20.50;38.80
7700;DHT22;3892;47.794;19.126;2023-05-10T07:46:55;20.60;38.90
7700;DHT22;3892;47.794;19.126;2023-05-10T07:49:23;20.80;38.80
7700;DHT22;3892;47.794;19.126;2023-05-10T07:51:51;20.70;37.10
7700;DHT22;3892;47.794;19.126;2023-05-10T07:54:19;20.80;37.40
7700;DHT22;3892;47.794;19.126;2023-05-10T07:56:48;20.80;37.80
7700;DHT22;3892;47.794;19.126;2023-05-10T07:59:17;20.90;38.10
7700;DHT22;3892;47.794;19.126;2023-05-10T08:01:45;20.90;36.90
7700;DHT22;3892;47.794;19.126;2023-05-10T08:04:13;20.90;36.50
7700;DHT22;3892;47.794;19.126;2023-05-10T08:06:42;20.80;36.30
7700;DHT22;3892;47.794;19.126;2023-05-10T08:09:10;20.80;36.40
7700;DHT22;3892;47.794;19.126;2023-05-10T08:11:38;20.80;36.60
7700;DHT22;3892;47.794;19.126;2023-05-10T08:14:06;20.70;36.60
7700;DHT22;3892;47.794;19.126;2023-05-10T08:16:35;20.80;37.30
7700;DHT22;3892;47.794;19.126;2023-05-10T08:19:03;20.80;36.90
7700;DHT22;3892;47.794;19.126;2023-05-10T08:21:32;20.80;36.60
7700;DHT22;3892;47.794;19.126;2023-05-10T08:24:00;20.80;37.00
7700;DHT22;3892;47.794;19.126;2023-05-10T08:26:28;20.90;38.30
7700;DHT22;3892;47.794;19.126;2023-05-10T08:28:56;21.00;37.20
7700;DHT22;3892;47.794;19.126;2023-05-10T08:31:24;20.90;36.60
7700;DHT22;3892;47.794;19.126;2023-05-10T08:33:54;20.90;36.80
7700;DHT22;3892;47.794;19.126;2023-05-10T08:36:22;20.90;36.80
7700;DHT22;3892;47.794;19.126;2023-05-10T08:38:51;20.90;37.00
7700;DHT22;3892;47.794;19.126;2023-05-10T08:41:20;20.80;36.80
7700;DHT22;3892;47.794;19.126;2023-05-10T08:43:49;20.90;37.30
7700;DHT22;3892;47.794;19.126;2023-05-10T08:46:19;21.00;37.80
7700;DHT22;3892;47.794;19.126;2023-05-10T08:48:48;21.10;38.00
7700;DHT22;3892;47.794;19.126;2023-05-10T08:51:20;21.20;37.60
7700;DHT22;3892;47.794;19.126;2023-05-10T08:53:50;21.20;36.90
7700;DHT22;3892;47.794;19.126;2023-05-10T08:56:19;21.40;37.20
7700;DHT22;3892;47.794;19.126;2023-05-10T08:58:47;21.40;36.90
7700;DHT22;3892;47.794;19.126;2023-05-10T09:01:16;21.60;37.20
7700;DHT22;3892;47.794;19.126;2023-05-10T09:03:46;21.70;37.30
7700;DHT22;3892;47.794;19.126;2023-05-10T09:06:14;21.70;37.80
7700;DHT22;3892;47.794;19.126;2023-05-10T09:08:45;21.70;36.50
7700;DHT22;3892;47.794;19.126;2023-05-10T09:11:13;21.70;37.00
7700;DHT22;3892;47.794;19.126;2023-05-10T09:13:42;21.70;36.50
7700;DHT22;3892;47.794;19.126;2023-05-10T09:16:10;21.70;36.70
7700;DHT22;3892;47.794;19.126;2023-05-10T09:18:45;21.90;37.30
7700;DHT22;3892;47.794;19.126;2023-05-10T09:21:13;21.90;36.60
7700;DHT22;3892;47.794;19.126;2023-05-10T09:23:44;22.00;36.90
7700;DHT22;3892;47.794;19.126;2023-05-10T09:26:14;22.10;36.80
7700;DHT22;3892;47.794;19.126;2023-05-10T09:28:53;22.10;36.40
7700;DHT22;3892;47.794;19.126;2023-05-10T09:31:21;22.00;35.90
7700;DHT22;3892;47.794;19.126;2023-05-10T09:33:50;22.00;36.50
7700;DHT22;3892;47.794;19.126;2023-05-10T09:36:19;22.10;36.90
7700;DHT22;3892;47.794;19.126;2023-05-10T09:38:49;22.10;36.70
7700;DHT22;3892;47.794;19.126;2023-05-10T09:41:19;22.20;36.70
7700;DHT22;3892;47.794;19.126;2023-05-10T09:43:48;22.10;35.30
7700;DHT22;3892;47.794;19.126;2023-05-10T09:46:16;22.10;36.00
7700;DHT22;3892;47.794;19.126;2023-05-10T09:48:46;22.20;36.80
7700;DHT22;3892;47.794;19.126;2023-05-10T09:51:21;22.10;35.60
7700;DHT22;3892;47.794;19.126;2023-05-10T09:54:09;22.10;36.10
7700;DHT22;3892;47.794;19.126;2023-05-10T09:56:37;22.10;35.60
7700;DHT22;3892;47.794;19.126;2023-05-10T09:59:08;22.10;35.10
7700;DHT22;3892;47.794;19.126;2023-05-10T10:01:37;22.10;35.40
7700;DHT22;3892;47.794;19.126;2023-05-10T10:04:06;22.10;35.80
7700;DHT22;3892;47.794;19.126;2023-05-10T10:06:36;22.20;36.10
7700;DHT22;3892;47.794;19.126;2023-05-10T10:09:07;22.30;36.20
7700;DHT22;3892;47.794;19.126;2023-05-10T10:11:36;22.40;35.40
7700;DHT22;3892;47.794;19.126;2023-05-10T10:14:05;22.30;34.30
7700;DHT22;3892;47.794;19.126;2023-05-10T10:16:33;22.50;34.10
7700;DHT22;3892;47.794;19.126;2023-05-10T10:19:01;22.60;34.80
7700;DHT22;3892;47.794;19.126;2023-05-10T10:21:29;22.50;34.20
7700;DHT22;3892;47.794;19.126;2023-05-10T10:23:58;22.70;34.70
7700;DHT22;3892;47.794;19.126;2023-05-10T10:26:27;22.80;34.90
7700;DHT22;3892;47.794;19.126;2023-05-10T10:29:07;22.90;34.20
7700;DHT22;3892;47.794;19.126;2023-05-10T10:31:41;23.00;33.80
7700;DHT22;3892;47.794;19.126;2023-05-10T10:34:24;23.20;34.40
7700;DHT22;3892;47.794;19.126;2023-05-10T10:36:54;23.30;34.50
7700;DHT22;3892;47.794;19.126;2023-05-10T10:39:23;23.40;35.10
7700;DHT22;3892;47.794;19.126;2023-05-10T10:41:55;23.40;35.00
7700;DHT22;3892;47.794;19.126;2023-05-10T10:44:25;23.50;35.00
7700;DHT22;3892;47.794;19.126;2023-05-10T10:47:02;23.60;34.30
7700;DHT22;3892;47.794;19.126;2023-05-10T10:49:33;23.70;34.20
7700;DHT22;3892;47.794;19.126;2023-05-10T10:52:22;23.80;34.80
7700;DHT22;3892;47.794;19.126;2023-05-10T10:54:58;24.00;34.40
7700;DHT22;3892;47.794;19.126;2023-05-10T10:57:28;24.00;32.90
7700;DHT22;3892;47.794;19.126;2023-05-10T11:00:22;24.20;33.60
7700;DHT22;3892;47.794;19.126;2023-05-10T11:02:52;24.10;32.60
7700;DHT22;3892;47.794;19.126;2023-05-10T11:05:34;24.10;33.20
7700;DHT22;3892;47.794;19.126;2023-05-10T11:08:09;24.20;33.90
7700;DHT22;3892;47.794;19.126;2023-05-10T11:10:37;24.30;33.40
7700;DHT22;3892;47.794;19.126;2023-05-10T11:13:08;24.30;33.00
7700;DHT22;3892;47.794;19.126;2023-05-10T11:15:38;24.20;32.30
7700;DHT22;3892;47.794;19.126;2023-05-10T11:18:19;24.20;32.70
7700;DHT22;3892;47.794;19.126;2023-05-10T11:20:50;24.20;32.70
7700;DHT22;3892;47.794;19.126;2023-05-10T11:23:18;24.10;31.40
7700;DHT22;3892;47.794;19.126;2023-05-10T11:25:48;24.10;32.60
7700;DHT22;3892;47.794;19.126;2023-05-10T11:28:18;24.20;32.80
7700;DHT22;3892;47.794;19.126;2023-05-10T11:30:47;24.40;34.00
7700;DHT22;3892;47.794;19.126;2023-05-10T11:33:16;24.40;32.70
7700;DHT22;3892;47.794;19.126;2023-05-10T11:35:44;24.50;32.70
7700;DHT22;3892;47.794;19.126;2023-05-10T11:38:13;24.60;32.60
7700;DHT22;3892;47.794;19.126;2023-05-10T11:40:42;24.60;32.60
7700;DHT22;3892;47.794;19.126;2023-05-10T11:43:10;24.70;33.50
7700;DHT22;3892;47.794;19.126;2023-05-10T11:45:41;24.70;32.60
7700;DHT22;3892;47.794;19.126;2023-05-10T11:48:09;24.80;33.20
7700;DHT22;3892;47.794;19.126;2023-05-10T11:50:37;24.90;33.60
7700;DHT22;3892;47.794;19.126;2023-05-10T11:53:06;25.00;32.80
7700;DHT22;3892;47.794;19.126;2023-05-10T11:55:34;25.10;32.60
7700;DHT22;3892;47.794;19.126;2023-05-10T11:58:02;24.90;32.00
7700;DHT22;3892;47.794;19.126;2023-05-10T12:00:31;25.20;32.20
7700;DHT22;3892;47.794;19.126;2023-05-10T12:03:01;25.30;32.80
7700;DHT22;3892;47.794;19.126;2023-05-10T12:05:32;25.30;31.50
7700;DHT22;3892;47.794;19.126;2023-05-10T12:08:14;25.30;32.10
7700;DHT22;3892;47.794;19.126;2023-05-10T12:10:43;25.20;32.10
7700;DHT22;3892;47.794;19.126;2023-05-10T12:13:11;25.10;31.40
7700;DHT22;3892;47.794;19.126;2023-05-10T12:15:41;24.90;30.60
7700;DHT22;3892;47.794;19.126;2023-05-10T12:18:12;25.00;31.50
7700;DHT22;3892;47.794;19.126;2023-05-10T12:20:40;25.00;31.60
7700;DHT22;3892;47.794;19.126;2023-05-10T12:23:10;25.00;31.00
7700;DHT22;3892;47.794;19.126;2023-05-10T12:25:38;25.10;31.60
7700;DHT22;3892;47.794;19.126;2023-05-10T12:28:08;25.30;32.30
7700;DHT22;3892;47.794;19.126;2023-05-10T12:30:53;25.20;31.30
7700;DHT22;3892;47.794;19.126;2023-05-10T12:33:23;25.50;31.70
7700;DHT22;3892;47.794;19.126;2023-05-10T12:35:53;25.70;32.30
7700;DHT22;3892;47.794;19.126;2023-05-10T12:38:27;25.80;31.70
7700;DHT22;3892;47.794;19.126;2023-05-10T12:40:58;26.00;32.00
7700;DHT22;3892;47.794;19.126;2023-05-10T12:43:26;26.10;31.50
7700;DHT22;3892;47.794;19.126;2023-05-10T12:45:54;26.20;31.00
7700;DHT22;3892;47.794;19.126;2023-05-10T12:48:24;26.30;31.90
7700;DHT22;3892;47.794;19.126;2023-05-10T12:50:52;26.50;31.60
7700;DHT22;3892;47.794;19.126;2023-05-10T12:53:20;26.60;31.00
7700;DHT22;3892;47.794;19.126;2023-05-10T12:55:48;26.70;30.70
7700;DHT22;3892;47.794;19.126;2023-05-10T12:58:16;26.70;30.60
7700;DHT22;3892;47.794;19.126;2023-05-10T13:00:53;26.70;30.50
7700;DHT22;3892;47.794;19.126;2023-05-10T13:03:24;26.40;29.70
7700;DHT22;3892;47.794;19.126;2023-05-10T13:05:52;26.10;29.70
7700;DHT22;3892;47.794;19.126;2023-05-10T13:08:20;25.80;30.00
7700;DHT22;3892;47.794;19.126;2023-05-10T13:10:48;25.60;29.10
7700;DHT22;3892;47.794;19.126;2023-05-10T13:13:16;25.40;29.50
7700;DHT22;3892;47.794;19.126;2023-05-10T13:15:44;25.00;29.60
7700;DHT22;3892;47.794;19.126;2023-05-10T13:18:12;25.00;30.30
7700;DHT22;3892;47.794;19.126;2023-05-10T13:20:42;24.90;30.60
7700;DHT22;3892;47.794;19.126;2023-05-10T13:23:11;25.00;31.20
7700;DHT22;3892;47.794;19.126;2023-05-10T13:25:38;24.90;30.00
7700;DHT22;3892;47.794;19.126;2023-05-10T13:28:06;24.90;29.50
7700;DHT22;3892;47.794;19.126;2023-05-10T13:30:34;24.80;29.40
7700;DHT22;3892;47.794;19.126;2023-05-10T13:33:03;24.80;30.30
7700;DHT22;3892;47.794;19.126;2023-05-10T13:35:31;24.80;29.90
7700;DHT22;3892;47.794;19.126;2023-05-10T13:38:00;24.80;30.00
7700;DHT22;3892;47.794;19.126;2023-05-10T13:40:28;24.90;30.20
7700;DHT22;3892;47.794;19.126;2023-05-10T13:42:56;24.80;30.10
7700;DHT22;3892;47.794;19.126;2023-05-10T13:45:24;25.00;30.70
7700;DHT22;3892;47.794;19.126;2023-05-10T13:47:52;25.10;31.00
7700;DHT22;3892;47.794;19.126;2023-05-10T13:50:20;25.00;30.00
7700;DHT22;3892;47.794;19.126;2023-05-10T13:52:48;25.10;31.30
7700;DHT22;3892;47.794;19.126;2023-05-10T13:55:17;25.20;34.20
7700;DHT22;3892;47.794;19.126;2023-05-10T13:57:46;25.30;32.50
7700;DHT22;3892;47.794;19.126;2023-05-10T14:00:14;25.30;32.80
7700;DHT22;3892;47.794;19.126;2023-05-10T14:02:43;25.50;35.10
7700;DHT22;3892;47.794;19.126;2023-05-10T14:05:11;25.60;31.90
7700;DHT22;3892;47.794;19.126;2023-05-10T14:07:39;25.80;31.80
7700;DHT22;3892;47.794;19.126;2023-05-10T14:10:08;25.90;32.00
7700;DHT22;3892;47.794;19.126;2023-05-10T14:12:37;25.90;30.70
7700;DHT22;3892;47.794;19.126;2023-05-10T14:15:06;25.80;30.40
7700;DHT22;3892;47.794;19.126;2023-05-10T14:17:37;25.80;31.30
7700;DHT22;3892;47.794;19.126;2023-05-10T14:20:06;25.90;31.30
7700;DHT22;3892;47.794;19.126;2023-05-10T14:22:35;25.70;30.90
7700;DHT22;3892;47.794;19.126;2023-05-10T14:25:03;25.60;30.40
7700;DHT22;3892;47.794;19.126;2023-05-10T14:27:31;25.60;30.50
7700;DHT22;3892;47.794;19.126;2023-05-10T14:30:01;25.60;30.00
7700;DHT22;3892;47.794;19.126;2023-05-10T14:32:29;25.60;29.50
7700;DHT22;3892;47.794;19.126;2023-05-10T14:34:58;25.60;29.40
7700;DHT22;3892;47.794;19.126;2023-05-10T14:37:26;25.50;29.20
7700;DHT22;3892;47.794;19.126;2023-05-10T14:39:54;25.30;29.30
7700;DHT22;3892;47.794;19.126;2023-05-10T14:42:22;25.20;29.80
7700;DHT22;3892;47.794;19.126;2023-05-10T14:44:50;25.10;29.80
7700;DHT22;3892;47.794;19.126;2023-05-10T14:47:20;25.10;29.40
7700;DHT22;3892;47.794;19.126;2023-05-10T14:49:48;25.00;29.20
7700;DHT22;3892;47.794;19.126;2023-05-10T14:52:16;25.00;29.50
7700;DHT22;3892;47.794;19.126;2023-05-10T14:54:44;24.80;30.40
7700;DHT22;3892;47.794;19.126;2023-05-10T14:57:12;24.80;31.10
7700;DHT22;3892;47.794;19.126;2023-05-10T14:59:40;24.80;31.70
7700;DHT22;3892;47.794;19.126;2023-05-10T15:02:08;24.70;31.40
7700;DHT22;3892;47.794;19.126;2023-05-10T15:04:38;24.60;31.70
7700;DHT22;3892;47.794;19.126;2023-05-10T15:07:06;24.50;32.20
7700;DHT22;3892;47.794;19.126;2023-05-10T15:09:34;24.40;32.50
7700;DHT22;3892;47.794;19.126;2023-05-10T15:12:02;24.40;32.60
7700;DHT22;3892;47.794;19.126;2023-05-10T15:14:30;24.40;32.90
7700;DHT22;3892;47.794;19.126;2023-05-10T15:16:59;24.30;32.20
7700;DHT22;3892;47.794;19.126;2023-05-10T15:19:27;24.30;32.50
7700;DHT22;3892;47.794;19.126;2023-05-10T15:21:57;24.30;32.80
7700;DHT22;3892;47.794;19.126;2023-05-10T15:24:25;24.30;33.00
7700;DHT22;3892;47.794;19.126;2023-05-10T15:26:54;24.30;32.50
7700;DHT22;3892;47.794;19.126;2023-05-10T15:29:22;24.20;32.60
7700;DHT22;3892;47.794;19.126;2023-05-10T15:31:50;24.10;32.40
7700;DHT22;3892;47.794;19.126;2023-05-10T15:34:19;24.10;32.70
7700;DHT22;3892;47.794;19.126;2023-05-10T15:36:46;24.10;32.80
7700;DHT22;3892;47.794;19.126;2023-05-10T15:39:16;24.20;33.40
7700;DHT22;3892;47.794;19.126;2023-05-10T15:41:44;24.30;33.40
7700;DHT22;3892;47.794;19.126;2023-05-10T15:44:12;24.50;33.30
7700;DHT22;3892;47.794;19.126;2023-05-10T15:46:40;24.60;32.80
7700;DHT22;3892;47.794;19.126;2023-05-10T15:49:08;24.60;32.80
7700;DHT22;3892;47.794;19.126;2023-05-10T15:51:36;24.60;32.70
7700;DHT22;3892;47.794;19.126;2023-05-10T15:54:04;24.60;31.80
7700;DHT22;3892;47.794;19.126;2023-05-10T15:56:35;24.50;31.60
7700;DHT22;3892;47.794;19.126;2023-05-10T15:59:03;24.40;31.60
7700;DHT22;3892;47.794;19.126;2023-05-10T16:01:34;24.40;32.50
7700;DHT22;3892;47.794;19.126;2023-05-10T16:04:03;24.30;32.40